createdAt,value
2022-08-20T00:01:21.041Z,12.98
2022-08-20T00:03:50.175Z,13.23
2022-08-20T00:06:25.224Z,12.67
2022-08-20T00:08:53.418Z,13.93
2022-08-20T00:11:25.754Z,14.60
2022-08-20T00:13:57.263Z,15.57
2022-08-20T00:16:32.894Z,11.73
2022-08-20T00:19:01.653Z,13.80
2022-08-20T00:21:31.497Z,14.43
2022-08-20T00:23:59.820Z,12.70
2022-08-20T00:26:28.223Z,16.73
2022-08-20T00:28:56.681Z,17.03
2022-08-20T00:31:27.359Z,16.38
2022-08-20T00:33:55.682Z,16.47
2022-08-20T00:36:32.373Z,16.57
2022-08-20T00:39:01.260Z,13.20
2022-08-20T00:41:32.125Z,12.13
2022-08-20T00:44:09.383Z,12.90
2022-08-20T00:46:39.624Z,11.23
2022-08-20T00:49:18.554Z,15.13
2022-08-20T00:51:54.066Z,13.07
2022-08-20T00:54:25.960Z,11.50
2022-08-20T00:56:58.635Z,10.37
2022-08-20T00:59:32.158Z,11.60
2022-08-20T01:02:03.259Z,12.43
2022-08-20T01:04:34.775Z,13.07
2022-08-20T01:07:06.814Z,12.47
2022-08-20T01:09:58.331Z,12.87
2022-08-20T01:12:29.223Z,12.63
2022-08-20T01:15:02.720Z,14.17
2022-08-20T01:17:37.635Z,13.17
2022-08-20T01:20:12.011Z,13.13
2022-08-20T01:23:01.410Z,14.00
2022-08-20T01:25:46.617Z,15.80
2022-08-20T01:28:17.316Z,14.47
2022-08-20T01:30:47.907Z,15.67
2022-08-20T01:33:16.128Z,14.47
2022-08-20T01:35:44.680Z,13.37
2022-08-20T01:38:15.259Z,14.33
2022-08-20T01:41:05.057Z,12.93
2022-08-20T01:43:36.926Z,13.77
2022-08-20T01:46:05.984Z,14.13
2022-08-20T01:48:34.158Z,13.87
2022-08-20T01:51:08.786Z,12.70
2022-08-20T01:53:41.703Z,11.67
2022-08-20T01:56:16.485Z,12.70
2022-08-20T01:58:55.875Z,12.10
2022-08-20T02:01:30.194Z,12.60
2022-08-20T02:03:58.542Z,13.93
2022-08-20T02:06:28.361Z,12.87
2022-08-20T02:08:57.831Z,11.63
2022-08-20T02:11:29.963Z,10.83
2022-08-20T02:14:00.470Z,12.20
2022-08-20T02:16:32.051Z,10.90
2022-08-20T02:19:04.554Z,11.80
2022-08-20T02:21:34.203Z,10.70
2022-08-20T02:24:06.129Z,9.40
2022-08-20T02:26:38.463Z,9.47
2022-08-20T02:29:08.373Z,9.30
2022-08-20T02:31:37.588Z,8.70
2022-08-20T02:34:25.788Z,8.33
2022-08-20T02:36:56.383Z,8.07
2022-08-20T02:39:27.062Z,8.47
2022-08-20T02:41:56.759Z,9.17
2022-08-20T02:44:25.163Z,8.80
2022-08-20T02:46:53.315Z,8.93
2022-08-20T02:49:22.462Z,8.17
2022-08-20T02:51:53.291Z,9.03
2022-08-20T02:54:21.565Z,8.70
2022-08-20T02:56:49.876Z,8.43
2022-08-20T02:59:19.856Z,8.47
2022-08-20T03:01:56.660Z,8.63
2022-08-20T03:04:29.305Z,7.83
2022-08-20T03:06:57.822Z,7.87
2022-08-20T03:09:28.975Z,7.63
2022-08-20T03:11:57.210Z,7.53
2022-08-20T03:14:26.887Z,6.60
2022-08-20T03:16:57.604Z,7.43
2022-08-20T03:19:25.919Z,6.00
2022-08-20T03:21:54.205Z,6.27
2022-08-20T03:24:24.627Z,6.23
2022-08-20T03:26:52.822Z,5.90
2022-08-20T03:29:21.196Z,5.70
2022-08-20T03:31:50.718Z,5.37
2022-08-20T03:34:21.149Z,4.80
2022-08-20T03:36:51.808Z,4.13
2022-08-20T03:39:20.046Z,4.90
2022-08-20T03:41:48.437Z,4.73
2022-08-20T03:44:16.619Z,4.60
2022-08-20T03:46:44.880Z,4.40
2022-08-20T03:49:14.461Z,4.00
2022-08-20T03:51:57.820Z,4.40
2022-08-20T03:54:31.601Z,3.47
2022-08-20T03:57:02.311Z,3.47
2022-08-20T03:59:33.919Z,3.17
2022-08-20T04:02:02.299Z,3.37
2022-08-20T04:04:31.924Z,3.00
2022-08-20T04:07:00.093Z,3.50
2022-08-20T04:09:28.915Z,2.67
2022-08-20T04:11:58.767Z,2.40
2022-08-20T04:14:29.399Z,2.50
2022-08-20T04:16:58.525Z,2.43
2022-08-20T04:19:30.143Z,2.50
2022-08-20T04:22:02.057Z,3.50
2022-08-20T04:24:32.409Z,2.83
2022-08-20T04:27:02.777Z,4.17
2022-08-20T04:29:35.315Z,5.07
2022-08-20T04:32:05.932Z,4.40
2022-08-20T04:34:36.913Z,4.50
2022-08-20T04:37:17.040Z,5.33
2022-08-20T04:40:05.978Z,5.60
2022-08-20T04:42:38.506Z,6.20
2022-08-20T04:45:08.999Z,7.77
2022-08-20T04:47:37.140Z,7.37
2022-08-20T04:50:05.871Z,8.67
2022-08-20T04:52:36.007Z,7.90
2022-08-20T04:55:08.125Z,7.63
2022-08-20T04:57:38.316Z,8.40
2022-08-20T05:00:12.963Z,8.00
2022-08-20T05:02:41.823Z,7.30
2022-08-20T05:05:14.399Z,7.67
2022-08-20T05:07:46.881Z,7.37
2022-08-20T05:10:18.078Z,9.30
2022-08-20T05:12:56.693Z,9.23
2022-08-20T05:15:27.780Z,8.80
2022-08-20T05:18:00.498Z,8.47
2022-08-20T05:20:31.229Z,10.20
2022-08-20T05:23:03.980Z,10.50
2022-08-20T05:25:32.782Z,10.10
2022-08-20T05:28:09.369Z,9.77
2022-08-20T05:30:38.455Z,10.20
2022-08-20T05:33:09.946Z,9.17
2022-08-20T05:35:41.142Z,9.97
2022-08-20T05:38:13.310Z,11.23
2022-08-20T05:40:51.288Z,10.87
2022-08-20T05:43:21.933Z,11.87
2022-08-20T05:45:56.542Z,10.47
2022-08-20T05:48:27.128Z,12.53
2022-08-20T05:50:58.604Z,12.17
2022-08-20T05:53:28.684Z,12.10
2022-08-20T05:55:59.561Z,11.70
2022-08-20T05:58:29.222Z,12.60
2022-08-20T06:00:57.493Z,12.37
2022-08-20T06:03:45.541Z,12.73
2022-08-20T06:06:18.195Z,14.80
2022-08-20T06:09:03.451Z,13.63
2022-08-20T06:11:37.301Z,15.10
2022-08-20T06:14:06.123Z,14.83
2022-08-20T06:16:37.248Z,15.10
2022-08-20T06:19:06.038Z,14.70
2022-08-20T06:21:39.762Z,16.07
2022-08-20T06:24:10.106Z,17.53
2022-08-20T06:26:38.403Z,15.70
2022-08-20T06:29:07.562Z,15.83
2022-08-20T06:31:39.839Z,15.03
2022-08-20T06:34:08.479Z,16.07
2022-08-20T06:36:38.954Z,17.17
2022-08-20T06:39:07.117Z,16.53
2022-08-20T06:41:39.860Z,14.97
2022-08-20T06:44:10.107Z,16.63
2022-08-20T06:46:39.456Z,16.93
2022-08-20T06:49:08.752Z,16.30
2022-08-20T06:51:41.470Z,16.20
2022-08-20T06:54:12.465Z,15.77
2022-08-20T06:56:44.094Z,18.17
2022-08-20T06:59:12.316Z,16.30
2022-08-20T07:01:42.886Z,15.77
2022-08-20T07:04:13.608Z,15.87
2022-08-20T07:06:41.809Z,16.67
2022-08-20T07:09:10.041Z,16.63
2022-08-20T07:11:42.301Z,16.53
2022-08-20T07:14:10.892Z,16.40
2022-08-20T07:16:39.186Z,18.23
2022-08-20T07:19:08.403Z,17.37
2022-08-20T07:21:39.637Z,16.30
2022-08-20T07:24:09.661Z,17.80
2022-08-20T07:26:41.510Z,16.43
2022-08-20T07:29:09.746Z,16.03
2022-08-20T07:32:13.234Z,16.37
2022-08-20T07:34:43.657Z,15.43
2022-08-20T07:37:13.856Z,17.27
2022-08-20T07:39:42.054Z,16.73
2022-08-20T07:42:11.685Z,16.53
2022-08-20T07:44:39.863Z,13.67
2022-08-20T07:47:10.339Z,13.90
2022-08-20T07:49:39.447Z,12.57
2022-08-20T07:52:08.184Z,12.40
2022-08-20T07:54:38.110Z,12.73
2022-08-20T07:57:06.635Z,14.07
2022-08-20T07:59:36.683Z,15.07
2022-08-20T08:02:05.570Z,15.30
2022-08-20T08:04:34.632Z,14.37
2022-08-20T08:07:02.915Z,14.23
2022-08-20T08:09:35.304Z,13.50
2022-08-20T08:12:04.908Z,11.93
2022-08-20T08:14:36.550Z,12.53
2022-08-20T08:17:07.229Z,13.60
2022-08-20T08:19:43.085Z,14.33
2022-08-20T08:22:16.249Z,14.83
2022-08-20T08:24:56.885Z,13.30
2022-08-20T08:27:25.758Z,13.00
2022-08-20T08:29:55.290Z,12.17
2022-08-20T08:32:24.498Z,12.03
2022-08-20T08:34:55.048Z,12.83
2022-08-20T08:37:23.501Z,11.43
2022-08-20T08:39:51.928Z,10.40
2022-08-20T08:42:27.508Z,10.00
2022-08-20T08:44:57.978Z,11.10
2022-08-20T08:47:32.053Z,9.83
2022-08-20T08:50:03.623Z,10.60
2022-08-20T08:52:35.644Z,9.97
2022-08-20T08:55:07.509Z,9.93
2022-08-20T08:57:38.284Z,10.20
2022-08-20T09:00:16.413Z,9.97
2022-08-20T09:02:56.247Z,9.87
2022-08-20T09:05:28.410Z,9.60
2022-08-20T09:07:57.368Z,8.97
2022-08-20T09:10:28.105Z,8.93
2022-08-20T09:12:56.365Z,7.60
2022-08-20T09:15:28.082Z,7.83
2022-08-20T09:17:56.319Z,8.93
2022-08-20T09:20:27.259Z,9.20
2022-08-20T09:22:56.025Z,9.10
2022-08-20T09:25:27.056Z,8.77
2022-08-20T09:27:57.580Z,8.85
2022-08-20T09:30:27.225Z,9.93
2022-08-20T09:33:00.364Z,10.30
2022-08-20T09:35:29.068Z,8.80
2022-08-20T09:37:57.467Z,9.13
2022-08-20T09:40:25.774Z,9.13
2022-08-20T09:42:54.082Z,7.87
2022-08-20T09:45:22.591Z,6.80
2022-08-20T09:47:55.215Z,6.82
2022-08-20T09:50:26.251Z,8.55
2022-08-20T09:52:56.369Z,7.68
2022-08-20T09:55:33.660Z,7.15
2022-08-20T09:58:03.532Z,6.00
2022-08-20T10:00:31.832Z,6.53
2022-08-20T10:03:03.243Z,6.28
2022-08-20T10:05:33.777Z,6.22
2022-08-20T10:08:05.744Z,6.55
2022-08-20T10:10:34.229Z,7.72
2022-08-20T10:13:05.672Z,7.00
2022-08-20T10:15:34.060Z,5.97
2022-08-20T10:18:07.880Z,4.85
2022-08-20T10:20:36.736Z,4.10
2022-08-20T10:23:05.827Z,3.85
2022-08-20T10:25:34.115Z,3.10
2022-08-20T10:28:02.340Z,3.10
2022-08-20T10:30:30.557Z,3.47
2022-08-20T10:32:58.768Z,3.55
2022-08-20T10:35:30.661Z,3.30
2022-08-20T10:38:01.416Z,3.08
2022-08-20T10:40:31.954Z,3.13
2022-08-20T10:43:00.149Z,2.90
2022-08-20T10:45:28.510Z,3.10
2022-08-20T10:47:59.596Z,3.03
2022-08-20T10:50:30.283Z,2.47
2022-08-20T10:53:00.750Z,2.95
2022-08-20T10:55:28.953Z,2.72
2022-08-20T10:57:57.391Z,2.67
2022-08-20T11:00:25.865Z,2.88
2022-08-20T11:02:54.887Z,2.85
2022-08-20T11:05:25.450Z,3.10
2022-08-20T11:07:56.738Z,2.67
2022-08-20T11:10:27.878Z,2.58
2022-08-20T11:12:56.124Z,2.70
2022-08-20T11:15:26.916Z,2.75
2022-08-20T11:17:56.395Z,2.58
2022-08-20T11:20:26.301Z,2.65
2022-08-20T11:22:55.496Z,2.53
2022-08-20T11:25:23.770Z,2.45
2022-08-20T11:27:57.299Z,2.55
2022-08-20T11:30:28.601Z,3.00
2022-08-20T11:32:57.633Z,3.00
2022-08-20T11:35:43.532Z,2.90
2022-08-20T11:38:17.075Z,2.70
2022-08-20T11:40:46.632Z,2.92
2022-08-20T11:43:17.586Z,2.38
2022-08-20T11:45:48.651Z,2.67
2022-08-20T11:48:19.688Z,2.40
2022-08-20T11:50:51.580Z,2.53
2022-08-20T11:53:19.975Z,2.28
2022-08-20T11:55:50.224Z,2.58
2022-08-20T11:58:20.154Z,3.08
2022-08-20T12:00:50.770Z,2.75
2022-08-20T12:03:19.126Z,2.47
2022-08-20T12:05:50.025Z,2.45
2022-08-20T12:08:26.882Z,2.30
2022-08-20T12:10:57.665Z,2.80
2022-08-20T12:13:30.757Z,2.47
2022-08-20T12:16:15.569Z,2.38
2022-08-20T12:18:44.084Z,2.53
2022-08-20T12:21:15.821Z,2.58
2022-08-20T12:23:44.155Z,2.30
2022-08-20T12:26:12.530Z,2.25
2022-08-20T12:28:42.100Z,2.22
2022-08-20T12:31:10.494Z,1.90
2022-08-20T12:33:38.749Z,2.20
2022-08-20T12:36:07.398Z,2.00
2022-08-20T12:38:38.123Z,2.65
2022-08-20T12:41:06.518Z,2.15
2022-08-20T12:43:34.738Z,2.50
2022-08-20T12:46:04.411Z,1.95
2022-08-20T12:48:32.648Z,2.20
2022-08-20T12:51:03.383Z,2.80
2022-08-20T12:53:31.648Z,1.95
2022-08-20T12:56:02.512Z,2.13
2022-08-20T12:58:32.427Z,1.88
2022-08-20T13:01:00.721Z,2.08
2022-08-20T13:03:32.236Z,2.20
2022-08-20T13:06:02.544Z,2.30
2022-08-20T13:08:33.046Z,2.38
2022-08-20T13:11:03.519Z,2.30
2022-08-20T13:13:31.905Z,2.30
2022-08-20T13:16:00.092Z,2.50
2022-08-20T13:18:28.453Z,2.42
2022-08-20T13:20:58.093Z,2.20
2022-08-20T13:23:29.502Z,2.10
2022-08-20T13:25:57.864Z,2.42
2022-08-20T13:28:26.310Z,2.38
2022-08-20T13:30:54.565Z,2.13
2022-08-20T13:33:22.808Z,2.08
2022-08-20T13:35:51.086Z,1.90
2022-08-20T13:38:23.042Z,2.75
2022-08-20T13:40:53.139Z,2.53
2022-08-20T13:43:21.345Z,2.30
2022-08-20T13:45:49.669Z,2.00
2022-08-20T13:48:17.879Z,2.30
2022-08-20T13:50:47.365Z,2.58
2022-08-20T13:53:16.616Z,2.38
2022-08-20T13:55:49.121Z,2.05
2022-08-20T13:58:17.951Z,2.10
2022-08-20T14:00:48.437Z,2.10
2022-08-20T14:03:19.944Z,2.53
2022-08-20T14:05:53.438Z,1.95
2022-08-20T14:08:24.952Z,2.13
2022-08-20T14:10:54.550Z,2.03
2022-08-20T14:13:25.009Z,2.40
2022-08-20T14:15:53.634Z,2.25
2022-08-20T14:18:22.060Z,2.00
2022-08-20T14:20:50.438Z,2.30
2022-08-20T14:23:18.712Z,1.95
2022-08-20T14:25:49.365Z,1.95
2022-08-20T14:28:23.199Z,1.77
2022-08-20T14:30:53.999Z,1.85
2022-08-20T14:33:23.376Z,2.25
2022-08-20T14:35:52.060Z,1.83
2022-08-20T14:38:22.551Z,2.20
2022-08-20T14:40:50.925Z,1.83
2022-08-20T14:43:22.756Z,1.85
2022-08-20T14:45:50.983Z,2.03
2022-08-20T14:48:22.687Z,1.77
2022-08-20T14:50:50.882Z,2.00
2022-08-20T14:53:19.467Z,1.60
2022-08-20T14:55:47.704Z,2.10
2022-08-20T14:58:17.026Z,2.13
2022-08-20T15:00:48.931Z,1.88
2022-08-20T15:03:17.257Z,1.80
2022-08-20T15:05:45.525Z,1.90
2022-08-20T15:08:13.862Z,1.95
2022-08-20T15:10:42.635Z,1.70
2022-08-20T15:13:10.891Z,4.85
2022-08-20T15:15:39.464Z,5.25
2022-08-20T15:18:09.475Z,5.25
2022-08-20T15:20:40.155Z,3.00
2022-08-20T15:23:11.096Z,2.40
2022-08-20T15:25:39.546Z,1.80
2022-08-20T15:28:10.263Z,2.53
2022-08-20T15:30:39.809Z,1.80
2022-08-20T15:33:09.954Z,2.10
2022-08-20T15:35:41.241Z,2.33
2022-08-20T15:38:09.611Z,1.88
2022-08-20T15:40:37.928Z,1.65
2022-08-20T15:43:07.019Z,2.00
2022-08-20T15:45:36.315Z,1.80
2022-08-20T15:48:12.926Z,2.20
2022-08-20T15:51:04.734Z,1.98
2022-08-20T15:53:38.104Z,2.00
2022-08-20T15:56:16.438Z,1.80
2022-08-20T15:58:52.599Z,1.92
2022-08-20T16:01:28.619Z,1.95
2022-08-20T16:04:27.019Z,1.67
2022-08-20T16:07:01.598Z,1.90
2022-08-20T16:09:45.742Z,2.33
2022-08-20T16:12:25.044Z,1.58
2022-08-20T16:15:02.164Z,1.48
2022-08-20T16:17:35.988Z,1.90
2022-08-20T16:20:11.123Z,1.80
2022-08-20T16:22:44.267Z,1.90
2022-08-20T16:25:17.836Z,1.80
2022-08-20T16:27:54.955Z,2.00
2022-08-20T16:30:33.941Z,1.75
2022-08-20T16:33:08.423Z,1.80
2022-08-20T16:35:48.387Z,2.25
2022-08-20T16:38:24.957Z,1.77
2022-08-20T16:41:08.165Z,1.88
2022-08-20T16:43:52.846Z,1.88
2022-08-20T16:46:24.938Z,2.22
2022-08-20T16:48:57.995Z,3.22
2022-08-20T16:51:39.672Z,2.90
2022-08-20T16:54:08.810Z,4.93
2022-08-20T16:56:40.291Z,5.25
2022-08-20T16:59:11.179Z,7.05
2022-08-20T17:01:42.040Z,3.63
2022-08-20T17:04:23.110Z,3.00
2022-08-20T17:06:53.284Z,2.30
2022-08-20T17:09:35.914Z,2.15
2022-08-20T17:12:20.856Z,1.67
2022-08-20T17:14:52.587Z,1.85
2022-08-20T17:17:24.258Z,1.77
2022-08-20T17:19:57.499Z,1.50
2022-08-20T17:22:29.388Z,1.42
2022-08-20T17:24:58.534Z,1.85
2022-08-20T17:27:38.045Z,1.98
2022-08-20T17:30:20.263Z,1.58
2022-08-20T17:32:58.861Z,1.40
2022-08-20T17:35:33.899Z,1.88
2022-08-20T17:38:06.154Z,2.22
2022-08-20T17:40:45.791Z,1.80
2022-08-20T17:43:27.095Z,1.98
2022-08-20T17:45:55.591Z,2.03
2022-08-20T17:48:29.203Z,2.00
2022-08-20T17:50:59.326Z,2.33
2022-08-20T17:53:33.079Z,1.77
2022-08-20T17:56:09.930Z,1.92
2022-08-20T17:58:54.116Z,1.83
2022-08-20T18:01:26.155Z,1.48
2022-08-20T18:03:56.994Z,1.45
2022-08-20T18:06:34.507Z,1.58
2022-08-20T18:09:12.893Z,1.35
2022-08-20T18:11:46.199Z,1.63
2022-08-20T18:14:34.481Z,1.30
2022-08-20T18:17:19.101Z,1.60
2022-08-20T18:20:06.917Z,1.27
2022-08-20T18:22:44.593Z,1.27
2022-08-20T18:25:26.280Z,1.40
2022-08-20T18:27:59.140Z,1.60
2022-08-20T18:30:28.028Z,1.40
2022-08-20T18:33:04.017Z,1.90
2022-08-20T18:35:38.646Z,1.77
2022-08-20T18:38:29.908Z,1.88
2022-08-20T18:41:09.891Z,2.38
2022-08-20T18:43:39.093Z,1.75
2022-08-20T18:46:15.574Z,2.10
2022-08-20T18:48:56.323Z,1.52
2022-08-20T18:51:31.346Z,1.20
2022-08-20T18:53:59.841Z,1.58
2022-08-20T18:56:43.553Z,1.38
2022-08-20T18:59:19.833Z,1.42
2022-08-20T19:01:49.484Z,1.48
2022-08-20T19:04:27.158Z,1.30
2022-08-20T19:07:00.179Z,1.27
2022-08-20T19:09:52.141Z,1.33
2022-08-20T19:12:47.387Z,1.55
2022-08-20T19:15:18.101Z,1.40
2022-08-20T19:18:04.784Z,1.58
2022-08-20T19:20:36.133Z,1.50
2022-08-20T19:23:11.243Z,2.22
2022-08-20T19:25:49.337Z,2.22
2022-08-20T19:28:24.548Z,1.70
2022-08-20T19:30:53.392Z,2.17
2022-08-20T19:33:29.907Z,1.85
2022-08-20T19:36:11.258Z,2.85
2022-08-20T19:38:44.876Z,2.40
2022-08-20T19:41:20.197Z,2.00
2022-08-20T19:44:01.780Z,1.85
2022-08-20T19:46:36.886Z,1.48
2022-08-20T19:49:18.121Z,1.77
2022-08-20T19:51:56.605Z,1.88
2022-08-20T19:54:29.241Z,1.70
2022-08-20T19:56:58.827Z,1.67
2022-08-20T19:59:28.453Z,1.88
2022-08-20T20:02:02.698Z,2.20
2022-08-20T20:04:40.033Z,1.67
2022-08-20T20:07:19.523Z,2.30
2022-08-20T20:09:56.384Z,1.70
2022-08-20T20:12:27.646Z,1.85
2022-08-20T20:14:57.418Z,1.90
2022-08-20T20:17:30.991Z,1.95
2022-08-20T20:20:01.860Z,2.15
2022-08-20T20:22:32.865Z,1.77
2022-08-20T20:25:08.538Z,2.00
2022-08-20T20:27:39.422Z,1.90
2022-08-20T20:30:13.152Z,2.00
2022-08-20T20:32:44.869Z,2.20
2022-08-20T20:35:26.599Z,1.70
2022-08-20T20:38:00.342Z,1.83
2022-08-20T20:40:33.982Z,2.10
2022-08-20T20:43:07.662Z,1.93
2022-08-20T20:45:40.655Z,2.10
2022-08-20T20:48:18.704Z,2.80
2022-08-20T20:50:48.654Z,2.43
2022-08-20T20:53:32.291Z,2.30
2022-08-20T20:56:32.349Z,2.40
2022-08-20T20:59:05.862Z,2.00
2022-08-20T21:01:48.353Z,2.47
2022-08-20T21:04:18.435Z,2.30
2022-08-20T21:06:47.021Z,2.23
2022-08-20T21:09:15.692Z,2.23
2022-08-20T21:11:43.994Z,2.53
2022-08-20T21:14:12.499Z,2.40
2022-08-20T21:16:42.909Z,2.27
2022-08-20T21:19:12.092Z,2.80
2022-08-20T21:21:41.360Z,2.40
2022-08-20T21:24:10.154Z,2.47
2022-08-20T21:26:39.827Z,2.73
2022-08-20T21:29:10.391Z,2.60
2022-08-20T21:31:44.065Z,2.30
2022-08-20T21:34:16.562Z,2.70
2022-08-20T21:36:47.984Z,2.13
2022-08-20T21:39:16.698Z,2.40
2022-08-20T21:41:48.422Z,2.70
2022-08-20T21:44:22.510Z,2.53
2022-08-20T21:46:57.931Z,2.63
2022-08-20T21:49:30.211Z,2.37
2022-08-20T21:52:01.677Z,2.07
2022-08-20T21:54:30.241Z,1.97
2022-08-20T21:57:01.038Z,2.27
2022-08-20T21:59:29.902Z,2.03
2022-08-20T22:02:01.220Z,2.40
2022-08-20T22:04:33.501Z,1.97
2022-08-20T22:07:04.114Z,2.13
2022-08-20T22:09:32.994Z,2.20
2022-08-20T22:12:02.607Z,2.60
2022-08-20T22:14:31.099Z,2.00
2022-08-20T22:17:01.015Z,1.70
2022-08-20T22:19:31.659Z,2.13
2022-08-20T22:21:59.951Z,1.70
2022-08-20T22:24:31.056Z,2.03
2022-08-20T22:27:15.160Z,2.07
2022-08-20T22:29:43.643Z,1.90
2022-08-20T22:32:14.243Z,2.20
2022-08-20T22:34:43.035Z,2.30
2022-08-20T22:37:12.520Z,2.20
2022-08-20T22:39:40.865Z,1.70
2022-08-20T22:42:11.439Z,1.90
2022-08-20T22:44:39.722Z,2.50
2022-08-20T22:47:09.966Z,2.20
2022-08-20T22:49:41.663Z,2.33
2022-08-20T22:52:13.154Z,2.50
2022-08-20T22:54:45.703Z,2.23
2022-08-20T22:57:15.061Z,2.83
2022-08-20T22:59:53.227Z,2.77
2022-08-20T23:02:22.897Z,2.20
2022-08-20T23:04:52.769Z,2.30
2022-08-20T23:07:21.166Z,2.00
2022-08-20T23:09:49.705Z,1.87
2022-08-20T23:12:20.969Z,2.17
2022-08-20T23:14:49.203Z,2.77
2022-08-20T23:17:20.367Z,2.60
2022-08-20T23:19:52.316Z,2.30
2022-08-20T23:22:21.549Z,2.30
2022-08-20T23:24:52.080Z,2.47
2022-08-20T23:27:21.934Z,2.20
2022-08-20T23:29:50.117Z,1.70
2022-08-20T23:32:18.500Z,1.90
2022-08-20T23:34:46.909Z,2.17
2022-08-20T23:37:19.869Z,2.50
2022-08-20T23:39:49.810Z,2.20
2022-08-20T23:42:18.746Z,1.90
2022-08-20T23:44:46.938Z,2.37
2022-08-20T23:47:20.719Z,2.10
2022-08-20T23:49:51.282Z,2.53
2022-08-20T23:52:21.097Z,2.43
2022-08-20T23:54:49.371Z,2.37
2022-08-20T23:57:20.983Z,2.30
2022-08-20T23:59:53.021Z,2.53
